createdAt,value
2022-12-08T00:00:52.266Z,5.40
2022-12-08T00:03:23.068Z,7.08
2022-12-08T00:06:11.399Z,5.28
2022-12-08T00:09:00.004Z,5.65
2022-12-08T00:11:30.468Z,5.78
2022-12-08T00:14:00.962Z,5.12
2022-12-08T00:16:32.603Z,6.08
2022-12-08T00:19:03.793Z,5.60
2022-12-08T00:21:34.212Z,7.40
2022-12-08T00:24:04.869Z,5.62
2022-12-08T00:26:35.187Z,6.12
2022-12-08T00:29:06.288Z,7.67
2022-12-08T00:31:37.316Z,4.80
2022-12-08T00:34:08.866Z,5.90
2022-12-08T00:36:39.357Z,4.42
2022-12-08T00:39:10.252Z,6.50
2022-12-08T00:41:58.587Z,7.03
2022-12-08T00:44:29.326Z,7.30
2022-12-08T00:47:01.063Z,4.67
2022-12-08T00:49:31.673Z,4.72
2022-12-08T00:52:02.466Z,4.80
2022-12-08T00:54:32.903Z,4.67
2022-12-08T00:57:03.298Z,4.97
2022-12-08T00:59:33.781Z,5.45
2022-12-08T01:02:04.232Z,5.65
2022-12-08T01:04:34.814Z,4.05
2022-12-08T01:07:05.322Z,5.30
2022-12-08T01:09:35.850Z,5.70
2022-12-08T01:12:07.107Z,4.35
2022-12-08T01:14:38.672Z,5.85
2022-12-08T01:17:09.214Z,3.65
2022-12-08T01:19:40.254Z,4.72
2022-12-08T01:22:10.677Z,4.30
2022-12-08T01:24:41.144Z,5.20
2022-12-08T01:27:11.607Z,4.55
2022-12-08T01:29:42.032Z,4.85
2022-12-08T01:32:12.880Z,5.20
2022-12-08T01:34:44.720Z,4.33
2022-12-08T01:37:15.056Z,5.00
2022-12-08T01:39:45.558Z,5.08
2022-12-08T01:42:23.699Z,4.28
2022-12-08T01:44:57.143Z,4.75
2022-12-08T01:47:31.380Z,4.80
2022-12-08T01:50:03.452Z,4.75
2022-12-08T01:52:43.347Z,5.25
2022-12-08T01:55:22.666Z,4.40
2022-12-08T01:57:56.026Z,4.00
2022-12-08T02:00:26.653Z,4.12
2022-12-08T02:03:06.076Z,2.83
2022-12-08T02:05:39.484Z,3.55
2022-12-08T02:08:13.892Z,3.40
2022-12-08T02:10:45.723Z,3.95
2022-12-08T02:13:18.814Z,3.92
2022-12-08T02:16:06.854Z,4.72
2022-12-08T02:19:22.521Z,2.70
2022-12-08T02:21:34.803Z,3.60
2022-12-08T02:24:25.918Z,2.35
2022-12-08T02:27:28.026Z,2.52
2022-12-08T02:30:16.601Z,4.42
2022-12-08T02:33:04.802Z,4.30
2022-12-08T02:35:38.277Z,3.67
2022-12-08T02:38:26.350Z,3.00
2022-12-08T02:41:19.507Z,2.65
2022-12-08T02:46:39.604Z,3.02
2022-12-08T02:49:10.745Z,2.92
2022-12-08T02:51:41.435Z,3.08
2022-12-08T02:54:12.660Z,3.98
2022-12-08T02:57:10.588Z,2.12
2022-12-08T02:59:43.975Z,1.92
2022-12-08T03:02:43.336Z,2.25
2022-12-08T03:05:22.804Z,3.15
2022-12-08T03:08:05.757Z,3.27
2022-12-08T03:10:41.925Z,2.27
2022-12-08T03:13:15.979Z,2.12
2022-12-08T03:15:50.634Z,3.52
2022-12-08T03:18:25.391Z,2.55
2022-12-08T03:20:56.117Z,2.33
2022-12-08T03:23:27.794Z,2.15
2022-12-08T03:26:08.247Z,2.70
2022-12-08T03:28:39.921Z,2.75
2022-12-08T03:31:13.344Z,4.00
2022-12-08T03:33:46.963Z,3.42
2022-12-08T03:36:19.762Z,3.02
2022-12-08T03:38:53.245Z,3.02
2022-12-08T03:41:24.663Z,3.72
2022-12-08T03:43:59.808Z,2.72
2022-12-08T03:46:32.828Z,3.02
2022-12-08T03:49:03.837Z,2.65
2022-12-08T03:51:34.616Z,2.77
2022-12-08T03:54:06.104Z,3.33
2022-12-08T03:56:39.015Z,2.77
2022-12-08T03:59:11.913Z,3.05
2022-12-08T04:01:42.759Z,2.92
2022-12-08T04:04:14.364Z,3.08
2022-12-08T04:06:44.690Z,4.22
2022-12-08T04:09:15.193Z,4.28
2022-12-08T04:11:45.683Z,4.72
2022-12-08T04:14:16.565Z,3.02
2022-12-08T04:16:47.063Z,3.65
2022-12-08T04:19:17.510Z,3.10
2022-12-08T04:21:47.856Z,3.77
2022-12-08T04:24:18.264Z,3.30
2022-12-08T04:26:50.994Z,3.42
2022-12-08T04:29:21.733Z,3.27
2022-12-08T04:31:52.294Z,5.25
2022-12-08T04:34:22.859Z,3.92
2022-12-08T04:36:53.451Z,5.05
2022-12-08T04:39:23.850Z,3.70
2022-12-08T04:41:54.588Z,4.65
2022-12-08T04:44:26.343Z,4.72
2022-12-08T04:46:56.704Z,4.37
2022-12-08T04:49:27.207Z,6.53
2022-12-08T04:51:57.427Z,5.45
2022-12-08T04:54:30.651Z,5.42
2022-12-08T04:57:01.309Z,6.10
2022-12-08T04:59:31.723Z,5.87
2022-12-08T05:02:02.383Z,5.92
2022-12-08T05:04:33.064Z,6.35
2022-12-08T05:07:12.099Z,5.80
2022-12-08T05:09:45.228Z,5.58
2022-12-08T05:12:15.814Z,5.65
2022-12-08T05:14:49.074Z,5.28
2022-12-08T05:17:20.278Z,6.05
2022-12-08T05:19:50.726Z,5.12
2022-12-08T05:22:21.090Z,6.67
2022-12-08T05:24:51.538Z,6.70
2022-12-08T05:27:22.427Z,8.15
2022-12-08T05:29:53.577Z,7.12
2022-12-08T05:32:24.290Z,7.87
2022-12-08T05:34:54.653Z,8.83
2022-12-08T05:37:24.970Z,7.37
2022-12-08T05:39:55.295Z,6.72
2022-12-08T05:42:25.787Z,8.40
2022-12-08T05:44:57.630Z,6.78
2022-12-08T05:47:31.869Z,7.45
2022-12-08T05:50:00.527Z,6.37
2022-12-08T05:52:30.764Z,7.92
2022-12-08T05:55:01.484Z,7.12
2022-12-08T05:57:32.118Z,10.90
2022-12-08T06:00:03.140Z,9.48
2022-12-08T06:02:34.515Z,12.23
2022-12-08T06:05:05.295Z,13.58
2022-12-08T06:07:35.586Z,13.08
2022-12-08T06:10:07.774Z,11.35
2022-12-08T06:12:38.281Z,13.03
2022-12-08T06:15:09.380Z,13.18
2022-12-08T06:17:40.875Z,13.60
2022-12-08T06:20:11.992Z,11.65
2022-12-08T06:22:42.872Z,12.05
2022-12-08T06:25:13.997Z,14.23
2022-12-08T06:27:44.257Z,12.40
2022-12-08T06:30:15.370Z,18.48
2022-12-08T06:32:45.822Z,17.17
2022-12-08T06:35:16.417Z,20.80
2022-12-08T06:37:47.264Z,27.85
2022-12-08T06:40:17.911Z,23.83
2022-12-08T06:42:48.322Z,26.12
2022-12-08T06:45:19.744Z,22.48
2022-12-08T06:47:50.266Z,14.25
2022-12-08T06:50:20.937Z,15.38
2022-12-08T06:53:02.724Z,12.58
2022-12-08T06:55:57.537Z,13.50
2022-12-08T06:57:57.219Z,15.08
2022-12-08T07:00:27.640Z,13.65
2022-12-08T07:02:58.082Z,14.20
2022-12-08T07:05:28.524Z,14.90
2022-12-08T07:07:59.182Z,12.65
2022-12-08T07:10:31.338Z,12.90
2022-12-08T07:13:01.719Z,13.15
2022-12-08T07:15:32.270Z,12.70
2022-12-08T07:18:02.679Z,12.95
2022-12-08T07:20:34.376Z,12.90
2022-12-08T07:23:06.061Z,12.60
2022-12-08T07:25:36.401Z,11.45
2022-12-08T07:28:11.784Z,11.25
2022-12-08T07:33:11.742Z,16.12
2022-12-08T07:35:47.793Z,18.12
2022-12-08T07:38:14.223Z,27.80
2022-12-08T07:40:44.738Z,22.95
2022-12-08T07:43:15.138Z,25.68
2022-12-08T07:45:46.124Z,23.32
2022-12-08T07:48:16.574Z,28.12
2022-12-08T07:50:47.812Z,27.13
2022-12-08T07:53:18.277Z,26.12
2022-12-08T07:55:48.703Z,28.40
2022-12-08T07:58:19.022Z,30.23
2022-12-08T08:00:49.612Z,42.65
2022-12-08T08:03:22.161Z,36.42
2022-12-08T08:05:52.944Z,33.30
2022-12-08T08:08:24.663Z,35.78
2022-12-08T08:10:55.254Z,30.52
2022-12-08T08:13:27.122Z,29.05
2022-12-08T08:16:00.673Z,23.98
2022-12-08T08:18:31.303Z,30.20
2022-12-08T08:21:15.901Z,35.85
2022-12-08T08:23:34.465Z,29.10
2022-12-08T08:26:06.213Z,19.40
2022-12-08T08:28:36.708Z,16.82
2022-12-08T08:31:07.882Z,16.27
2022-12-08T08:33:38.413Z,15.93
2022-12-08T08:36:12.654Z,16.80
2022-12-08T08:38:44.365Z,16.45
2022-12-08T08:41:14.859Z,18.98
2022-12-08T08:43:45.303Z,20.27
2022-12-08T08:46:15.932Z,15.68
2022-12-08T08:48:46.466Z,17.40
2022-12-08T08:51:17.176Z,15.65
2022-12-08T08:53:47.585Z,16.52
2022-12-08T08:56:20.236Z,15.23
2022-12-08T08:58:52.881Z,16.60
2022-12-08T09:01:26.907Z,16.35
2022-12-08T09:03:58.104Z,20.25
2022-12-08T09:06:29.033Z,17.23
2022-12-08T09:08:59.684Z,20.50
2022-12-08T09:11:30.434Z,19.20
2022-12-08T09:14:01.043Z,17.20
2022-12-08T09:16:32.169Z,17.17
2022-12-08T09:19:03.869Z,15.80
2022-12-08T09:21:34.511Z,17.07
2022-12-08T09:24:04.979Z,18.42
2022-12-08T09:26:35.639Z,21.10
2022-12-08T09:29:06.205Z,17.82
2022-12-08T09:31:36.964Z,18.57
2022-12-08T09:34:07.470Z,19.73
2022-12-08T09:36:39.585Z,20.35
2022-12-08T09:39:10.515Z,26.02
2022-12-08T09:41:48.620Z,32.10
2022-12-08T09:44:48.116Z,29.18
2022-12-08T09:47:27.476Z,18.42
2022-12-08T09:50:09.547Z,17.25
2022-12-08T09:52:48.829Z,18.95
2022-12-08T09:55:22.476Z,15.30
2022-12-08T09:57:59.662Z,16.70
2022-12-08T10:00:31.591Z,18.73
2022-12-08T10:03:03.640Z,18.27
2022-12-08T10:05:37.215Z,16.57
2022-12-08T10:08:13.519Z,19.27
2022-12-08T10:10:58.937Z,17.37
2022-12-08T10:13:42.409Z,16.93
2022-12-08T10:16:29.996Z,16.35
2022-12-08T10:19:18.765Z,14.73
2022-12-08T10:21:49.963Z,15.58
2022-12-08T10:24:41.707Z,13.85
2022-12-08T10:27:16.341Z,14.13
2022-12-08T10:29:47.924Z,15.13
2022-12-08T10:32:23.888Z,15.05
2022-12-08T10:35:07.417Z,14.45
2022-12-08T10:37:39.341Z,14.23
2022-12-08T10:40:15.536Z,16.10
2022-12-08T10:42:49.266Z,16.67
2022-12-08T10:45:25.291Z,15.88
2022-12-08T10:48:04.903Z,15.93
2022-12-08T10:50:46.867Z,18.62
2022-12-08T10:53:23.182Z,19.67
2022-12-08T10:56:05.318Z,19.62
2022-12-08T10:58:43.979Z,19.73
2022-12-08T11:01:26.689Z,20.00
2022-12-08T11:04:03.147Z,18.32
2022-12-08T11:06:41.537Z,17.50
2022-12-08T11:09:20.961Z,18.98
2022-12-08T11:12:00.357Z,22.77
2022-12-08T11:14:46.096Z,20.57
2022-12-08T11:20:02.521Z,19.20
2022-12-08T11:22:39.044Z,19.12
2022-12-08T11:25:12.493Z,20.62
2022-12-08T11:27:45.871Z,19.25
2022-12-08T11:30:22.557Z,19.25
2022-12-08T11:32:55.965Z,18.37
2022-12-08T11:35:33.671Z,18.52
2022-12-08T11:38:21.513Z,20.43
2022-12-08T11:40:46.364Z,19.87
2022-12-08T11:43:29.896Z,20.97
2022-12-08T11:46:12.313Z,23.50
2022-12-08T11:48:45.757Z,20.60
2022-12-08T11:51:21.917Z,20.97
2022-12-08T11:54:02.612Z,19.23
2022-12-08T11:56:45.735Z,20.25
2022-12-08T11:59:28.015Z,18.95
2022-12-08T12:02:02.063Z,18.77
2022-12-08T12:04:47.540Z,19.27
2022-12-08T12:07:42.024Z,19.98
2022-12-08T12:10:21.393Z,18.17
2022-12-08T12:13:12.852Z,18.23
2022-12-08T12:16:01.113Z,20.72
2022-12-08T12:18:34.504Z,20.32
2022-12-08T12:21:10.929Z,18.92
2022-12-08T12:23:44.311Z,22.75
2022-12-08T12:26:26.857Z,21.40
2022-12-08T12:29:03.034Z,22.20
2022-12-08T12:31:36.459Z,21.73
2022-12-08T12:34:18.885Z,22.60
2022-12-08T12:37:15.804Z,21.17
2022-12-08T12:39:52.198Z,23.67
2022-12-08T12:42:48.866Z,24.07
2022-12-08T12:45:22.307Z,23.10
2022-12-08T12:48:01.119Z,24.10
2022-12-08T12:50:37.268Z,21.07
2022-12-08T12:53:22.652Z,20.80
2022-12-08T12:56:01.325Z,20.43
2022-12-08T12:58:35.759Z,20.05
2022-12-08T13:01:15.575Z,20.83
2022-12-08T13:03:49.135Z,19.70
2022-12-08T13:06:37.757Z,20.43
2022-12-08T13:09:09.984Z,21.45
2022-12-08T13:11:48.947Z,21.52
2022-12-08T13:14:37.679Z,24.30
2022-12-08T13:17:11.555Z,22.10
2022-12-08T13:19:48.803Z,25.08
2022-12-08T13:22:51.474Z,21.40
2022-12-08T13:25:47.333Z,21.65
2022-12-08T13:28:20.682Z,21.42
2022-12-08T13:30:53.550Z,22.10
2022-12-08T13:33:27.170Z,20.92
2022-12-08T13:36:25.201Z,20.50
2022-12-08T13:39:00.760Z,23.27
2022-12-08T13:41:42.828Z,20.70
2022-12-08T13:51:23.831Z,23.60
2022-12-08T13:55:35.461Z,22.73
2022-12-08T13:57:29.721Z,27.55
2022-12-08T14:00:09.243Z,28.12
2022-12-08T14:02:49.846Z,31.05
2022-12-08T14:05:35.158Z,23.73
2022-12-08T14:07:58.239Z,24.45
2022-12-08T14:10:32.390Z,20.68
2022-12-08T14:13:05.869Z,22.90
2022-12-08T14:15:38.653Z,18.77
2022-12-08T14:18:24.176Z,21.75
2022-12-08T14:23:38.190Z,26.07
2022-12-08T14:26:08.994Z,21.80
2022-12-08T14:28:44.587Z,32.60
2022-12-08T14:31:13.446Z,30.95
2022-12-08T14:33:44.152Z,31.52
2022-12-08T14:36:16.256Z,27.60
2022-12-08T14:38:47.516Z,29.90
2022-12-08T14:41:20.435Z,28.32
2022-12-08T14:43:55.484Z,28.65
2022-12-08T14:46:30.603Z,37.03
2022-12-08T14:49:04.949Z,39.38
2022-12-08T14:51:37.623Z,37.55
2022-12-08T14:54:14.855Z,43.02
2022-12-08T14:56:52.917Z,36.10
2022-12-08T14:59:36.573Z,40.17
2022-12-08T15:02:23.863Z,34.23
2022-12-08T15:05:10.438Z,33.08
2022-12-08T15:10:31.740Z,38.98
2022-12-08T15:13:21.796Z,35.88
2022-12-08T15:16:00.155Z,37.60
2022-12-08T15:18:42.680Z,37.03
2022-12-08T15:21:18.182Z,37.48
2022-12-08T15:23:53.618Z,37.85
2022-12-08T15:26:30.645Z,38.65
2022-12-08T15:29:08.300Z,32.38
2022-12-08T15:31:41.755Z,34.40
2022-12-08T15:34:15.657Z,33.73
2022-12-08T15:36:53.927Z,30.85
2022-12-08T15:39:34.437Z,32.98
2022-12-08T15:42:09.728Z,41.77
2022-12-08T15:44:42.807Z,39.33
2022-12-08T15:47:35.107Z,40.45
2022-12-08T15:50:08.823Z,42.33
2022-12-08T15:52:41.026Z,43.80
2022-12-08T15:55:19.288Z,44.33
2022-12-08T16:03:34.296Z,32.25
2022-12-08T16:06:10.305Z,28.52
2022-12-08T16:08:45.091Z,29.18
2022-12-08T16:11:56.716Z,25.88
2022-12-08T16:14:00.124Z,26.70
2022-12-08T16:16:33.528Z,26.90
2022-12-08T16:19:07.115Z,29.32
2022-12-08T16:24:13.701Z,29.87
2022-12-08T16:29:23.717Z,35.00
2022-12-08T16:31:55.200Z,34.85
2022-12-08T16:34:28.741Z,32.60
2022-12-08T16:37:01.828Z,33.05
2022-12-08T16:39:33.336Z,32.95
2022-12-08T16:42:26.189Z,32.38
2022-12-08T16:45:00.163Z,30.77
2022-12-08T16:47:34.158Z,30.82
2022-12-08T16:50:11.807Z,30.82
2022-12-08T16:52:47.681Z,35.38
2022-12-08T16:55:21.198Z,36.73
2022-12-08T16:58:10.887Z,38.60
2022-12-08T17:00:44.073Z,37.73
2022-12-08T17:03:19.608Z,40.38
2022-12-08T17:06:00.115Z,41.15
2022-12-08T17:08:32.699Z,41.98
2022-12-08T17:11:12.231Z,46.30
2022-12-08T17:13:44.468Z,41.50
2022-12-08T17:16:21.921Z,40.17
2022-12-08T17:18:54.449Z,38.50
2022-12-08T17:21:47.152Z,39.38
2022-12-08T17:24:22.313Z,42.23
2022-12-08T17:26:56.484Z,44.03
2022-12-08T17:29:29.000Z,46.75
2022-12-08T17:32:05.498Z,40.75
2022-12-08T17:34:37.577Z,43.92
2022-12-08T17:37:12.552Z,40.83
2022-12-08T17:39:44.062Z,41.37
2022-12-08T17:42:20.616Z,41.63
2022-12-08T17:44:56.089Z,47.17
2022-12-08T17:47:36.136Z,50.03
2022-12-08T17:50:10.067Z,52.33
2022-12-08T17:52:42.693Z,44.53
2022-12-08T17:55:14.888Z,46.18
2022-12-08T17:57:47.784Z,46.85
2022-12-08T18:00:19.584Z,48.17
2022-12-08T18:02:54.478Z,49.27
2022-12-08T18:05:30.517Z,42.27
2022-12-08T18:08:01.577Z,40.10
2022-12-08T18:10:36.523Z,38.25
2022-12-08T18:13:08.995Z,37.88
2022-12-08T18:15:40.401Z,36.00
2022-12-08T18:18:12.457Z,39.75
2022-12-08T18:20:45.332Z,37.88
2022-12-08T18:23:19.012Z,34.58
2022-12-08T18:25:51.528Z,34.35
2022-12-08T18:28:25.134Z,37.28
2022-12-08T18:30:59.346Z,37.70
2022-12-08T18:33:30.291Z,38.42
2022-12-08T18:36:02.548Z,37.98
2022-12-08T18:38:35.790Z,37.73
2022-12-08T18:41:16.496Z,39.90
2022-12-08T18:43:50.574Z,41.05
2022-12-08T18:46:24.689Z,46.18
2022-12-08T18:49:00.846Z,42.13
2022-12-08T18:51:33.766Z,44.15
2022-12-08T18:54:06.715Z,40.15
2022-12-08T18:56:40.539Z,41.37
2022-12-08T18:59:14.672Z,41.18
2022-12-08T19:01:49.226Z,40.35
2022-12-08T19:04:29.511Z,37.83
2022-12-08T19:06:56.219Z,39.60
2022-12-08T19:09:31.555Z,38.50
2022-12-08T19:12:04.913Z,46.83
2022-12-08T19:14:40.992Z,43.05
2022-12-08T19:17:16.117Z,42.45
2022-12-08T19:22:21.604Z,44.10
2022-12-08T19:24:56.427Z,40.52
2022-12-08T19:27:30.176Z,40.35
2022-12-08T19:30:02.383Z,39.40
2022-12-08T19:32:35.834Z,40.85
2022-12-08T19:35:08.611Z,42.20
2022-12-08T19:37:40.120Z,40.48
2022-12-08T19:40:39.877Z,45.55
2022-12-08T19:43:37.213Z,41.00
2022-12-08T19:46:10.793Z,42.73
2022-12-08T19:48:45.097Z,40.73
2022-12-08T19:51:19.360Z,37.80
2022-12-08T19:54:00.147Z,39.40
2022-12-08T19:56:35.582Z,37.05
2022-12-08T19:59:09.890Z,36.73
2022-12-08T20:01:42.125Z,34.15
2022-12-08T20:04:22.414Z,33.75
2022-12-08T20:06:57.179Z,33.15
2022-12-08T20:09:34.861Z,29.70
2022-12-08T20:12:09.550Z,31.80
2022-12-08T20:14:46.228Z,30.03
2022-12-08T20:17:21.006Z,33.90
2022-12-08T20:19:56.011Z,38.73
2022-12-08T20:22:30.009Z,39.50
2022-12-08T20:25:03.404Z,36.88
2022-12-08T20:27:35.805Z,34.03
2022-12-08T20:30:16.726Z,34.95
2022-12-08T20:32:46.475Z,37.90
2022-12-08T20:35:20.306Z,40.33
2022-12-08T20:37:52.543Z,41.28
2022-12-08T20:40:26.071Z,36.35
2022-12-08T20:43:02.622Z,34.25
2022-12-08T20:45:36.320Z,33.75
2022-12-08T20:48:08.706Z,34.98
2022-12-08T20:50:41.804Z,34.03
2022-12-08T20:53:14.098Z,35.85
2022-12-08T20:55:48.902Z,38.23
2022-12-08T20:58:21.289Z,39.92
2022-12-08T21:00:57.275Z,37.03
2022-12-08T21:03:30.914Z,37.40
2022-12-08T21:06:02.249Z,38.78
2022-12-08T21:08:36.424Z,37.53
2022-12-08T21:11:08.304Z,37.03
2022-12-08T21:13:40.498Z,35.20
2022-12-08T21:16:18.142Z,35.30
2022-12-08T21:21:42.501Z,36.70
2022-12-08T21:24:17.009Z,39.15
2022-12-08T21:26:49.826Z,37.38
2022-12-08T21:29:21.936Z,36.20
2022-12-08T21:31:57.869Z,37.10
2022-12-08T21:34:34.630Z,39.40
2022-12-08T21:37:09.453Z,40.58
2022-12-08T21:39:42.571Z,34.83
2022-12-08T21:42:34.624Z,40.30
2022-12-08T21:45:08.673Z,45.10
2022-12-08T21:47:42.760Z,45.58
2022-12-08T21:50:18.469Z,46.77
2022-12-08T21:52:52.937Z,42.10
2022-12-08T21:55:25.839Z,40.78
2022-12-08T21:58:01.447Z,40.95
2022-12-08T22:00:40.521Z,41.00
2022-12-08T22:03:19.566Z,38.78
2022-12-08T22:05:52.418Z,39.63
2022-12-08T22:08:27.670Z,41.63
2022-12-08T22:10:59.554Z,39.80
2022-12-08T22:13:41.343Z,42.08
2022-12-08T22:16:17.541Z,36.15
2022-12-08T22:18:55.144Z,33.75
2022-12-08T22:21:27.265Z,33.28
2022-12-08T22:24:01.040Z,34.10
2022-12-08T22:26:34.429Z,34.73
2022-12-08T22:29:05.983Z,34.48
2022-12-08T22:31:38.789Z,38.00
2022-12-08T22:34:10.283Z,36.77
2022-12-08T22:36:43.775Z,39.15
2022-12-08T22:39:16.612Z,39.65
2022-12-08T22:41:49.436Z,45.05
2022-12-08T22:44:30.715Z,48.25
2022-12-08T22:47:03.063Z,48.48
2022-12-08T22:49:39.404Z,44.33
2022-12-08T22:52:19.318Z,44.03
2022-12-08T22:54:52.150Z,47.43
2022-12-08T22:57:24.492Z,47.00
2022-12-08T22:59:55.836Z,45.55
2022-12-08T23:02:27.830Z,43.33
2022-12-08T23:05:03.481Z,40.38
2022-12-08T23:07:36.138Z,40.78
2022-12-08T23:10:10.768Z,40.52
2022-12-08T23:12:44.940Z,39.75
2022-12-08T23:15:19.112Z,35.05
2022-12-08T23:17:53.809Z,34.18
2022-12-08T23:20:43.815Z,35.28
2022-12-08T23:23:31.540Z,37.67
2022-12-08T23:26:32.753Z,34.55
2022-12-08T23:29:07.783Z,35.95
2022-12-08T23:31:42.192Z,36.40
2022-12-08T23:34:15.996Z,36.25
2022-12-08T23:36:47.241Z,35.83
2022-12-08T23:39:17.739Z,38.40
2022-12-08T23:41:48.155Z,37.73
2022-12-08T23:44:19.720Z,41.40
2022-12-08T23:46:50.452Z,39.53
2022-12-08T23:49:21.624Z,39.13
2022-12-08T23:51:52.444Z,35.92
2022-12-08T23:54:23.863Z,39.88
2022-12-08T23:56:54.274Z,41.75
2022-12-08T23:59:24.774Z,38.17
